Pagina principală
METAR-TAF:

METAR-TAF

Aeroporturi :

Puerto Francisco de Orellana, Ecuador

Latitudine: 00-27-46S, longitudine: 076-59-12W, elevație: 254 m

Observații meteo curente

Raportul a fost făcut în urmă cu 36 de minute, la 17:00 UTC
Vânt 3 kt de la Vest
Temperatură 27°C
Umiditate 84%
Presiune 1016 hPa
Vizibilitate de 10 km sau mai mult
Nori împrăștiați la o înălțime de 1600 picior
Nori fragmentați la o înălțime de 10000 picior

METAR: SECO 261700Z 28003KT 9999 SCT016 BKN100 27/24 Q1016 RMK A3002

Ora: 12:36 (17:36 UTC)


TAF: lipsă

Observații și prognoze meteo pentru peste 4.000 de aeroporturi (rapoarte METAR și TAF).

Stațiile disponibile sunt reprezentate pe hartă prin puncte galbene și roșii.

Țineți indicatorul mouse-ului pe punctul dorit pentru a vedea denumirea stației.

Apoi, faceți clic pentru a vedea observațiile și prognozele meteorologice.

Pentru a schimba harta: Pentru mărire, faceți clic pe butoanele verzi cu cruce neagră; pentru micșorare, pe butonul verde cu o liniuță; pentru hărți învecinate, pe săgețile verzi.


METAR-TAF: